sensor_id;sensor_type;location;lat;lon;timestamp;temperature;humidity
17994;DHT22;9122;48.406;9.984;2023-10-13T00:01:12;20.40;78.00
17994;DHT22;9122;48.406;9.984;2023-10-13T00:03:57;20.40;77.90
17994;DHT22;9122;48.406;9.984;2023-10-13T00:06:41;20.30;77.90
17994;DHT22;9122;48.406;9.984;2023-10-13T00:09:27;20.30;78.00
17994;DHT22;9122;48.406;9.984;2023-10-13T00:12:16;20.30;77.90
17994;DHT22;9122;48.406;9.984;2023-10-13T00:15:05;20.30;77.80
17994;DHT22;9122;48.406;9.984;2023-10-13T00:17:57;20.30;96.80
17994;DHT22;9122;48.406;9.984;2023-10-13T00:20:42;20.20;96.70
17994;DHT22;9122;48.406;9.984;2023-10-13T00:23:36;20.20;77.50
17994;DHT22;9122;48.406;9.984;2023-10-13T00:26:21;20.20;77.50
17994;DHT22;9122;48.406;9.984;2023-10-13T00:29:11;20.20;77.40
17994;DHT22;9122;48.406;9.984;2023-10-13T00:32:00;20.20;96.50
17994;DHT22;9122;48.406;9.984;2023-10-13T00:34:47;20.10;96.50
17994;DHT22;9122;48.406;9.984;2023-10-13T00:37:31;20.20;77.70
17994;DHT22;9122;48.406;9.984;2023-10-13T00:40:26;20.20;77.40
17994;DHT22;9122;48.406;9.984;2023-10-13T00:43:16;20.10;77.40
17994;DHT22;9122;48.406;9.984;2023-10-13T00:46:03;20.10;77.30
17994;DHT22;9122;48.406;9.984;2023-10-13T00:48:48;20.10;77.20
17994;DHT22;9122;48.406;9.984;2023-10-13T00:51:39;20.10;77.20
17994;DHT22;9122;48.406;9.984;2023-10-13T00:54:31;20.10;77.30
17994;DHT22;9122;48.406;9.984;2023-10-13T00:57:16;20.10;96.40
17994;DHT22;9122;48.406;9.984;2023-10-13T01:00:13;20.10;77.10
17994;DHT22;9122;48.406;9.984;2023-10-13T01:03:08;20.00;77.80
17994;DHT22;9122;48.406;9.984;2023-10-13T01:05:55;20.00;77.20
17994;DHT22;9122;48.406;9.984;2023-10-13T01:08:45;20.00;77.00
17994;DHT22;9122;48.406;9.984;2023-10-13T01:11:30;19.90;77.00
17994;DHT22;9122;48.406;9.984;2023-10-13T01:14:15;19.90;77.10
17994;DHT22;9122;48.406;9.984;2023-10-13T01:17:01;19.90;77.10
17994;DHT22;9122;48.406;9.984;2023-10-13T01:19:46;20.00;96.40
17994;DHT22;9122;48.406;9.984;2023-10-13T01:22:33;19.80;77.20
17994;DHT22;9122;48.406;9.984;2023-10-13T01:25:17;19.80;77.20
17994;DHT22;9122;48.406;9.984;2023-10-13T01:28:04;19.80;77.60
17994;DHT22;9122;48.406;9.984;2023-10-13T01:30:53;19.80;77.70
17994;DHT22;9122;48.406;9.984;2023-10-13T01:33:38;19.70;96.30
17994;DHT22;9122;48.406;9.984;2023-10-13T01:36:23;19.70;77.60
17994;DHT22;9122;48.406;9.984;2023-10-13T01:39:08;19.70;77.40
17994;DHT22;9122;48.406;9.984;2023-10-13T01:41:58;19.70;77.40
17994;DHT22;9122;48.406;9.984;2023-10-13T01:44:42;19.70;95.90
17994;DHT22;9122;48.406;9.984;2023-10-13T01:47:27;19.70;77.50
17994;DHT22;9122;48.406;9.984;2023-10-13T01:50:12;19.60;77.20
17994;DHT22;9122;48.406;9.984;2023-10-13T01:53:03;19.60;77.30
17994;DHT22;9122;48.406;9.984;2023-10-13T01:55:56;19.60;77.40
17994;DHT22;9122;48.406;9.984;2023-10-13T01:58:41;19.50;77.70
17994;DHT22;9122;48.406;9.984;2023-10-13T02:01:33;19.50;77.80
17994;DHT22;9122;48.406;9.984;2023-10-13T02:04:18;19.40;77.70
17994;DHT22;9122;48.406;9.984;2023-10-13T02:07:05;19.40;77.80
17994;DHT22;9122;48.406;9.984;2023-10-13T02:09:54;19.40;77.90
17994;DHT22;9122;48.406;9.984;2023-10-13T02:12:38;19.40;78.00
17994;DHT22;9122;48.406;9.984;2023-10-13T02:15:28;19.40;78.00
17994;DHT22;9122;48.406;9.984;2023-10-13T02:18:19;19.30;78.10
17994;DHT22;9122;48.406;9.984;2023-10-13T02:21:18;19.30;78.00
17994;DHT22;9122;48.406;9.984;2023-10-13T02:24:03;19.30;97.20
17994;DHT22;9122;48.406;9.984;2023-10-13T02:26:48;19.20;78.20
17994;DHT22;9122;48.406;9.984;2023-10-13T02:29:32;19.20;78.20
17994;DHT22;9122;48.406;9.984;2023-10-13T02:32:24;19.30;97.20
17994;DHT22;9122;48.406;9.984;2023-10-13T02:35:08;19.20;78.20
17994;DHT22;9122;48.406;9.984;2023-10-13T02:37:59;19.20;78.20
17994;DHT22;9122;48.406;9.984;2023-10-13T02:40:55;19.20;78.40
17994;DHT22;9122;48.406;9.984;2023-10-13T02:43:40;19.20;78.40
17994;DHT22;9122;48.406;9.984;2023-10-13T02:46:27;19.20;78.20
17994;DHT22;9122;48.406;9.984;2023-10-13T02:49:13;19.20;78.10
17994;DHT22;9122;48.406;9.984;2023-10-13T02:51:57;19.10;78.00
17994;DHT22;9122;48.406;9.984;2023-10-13T02:54:50;19.10;78.00
17994;DHT22;9122;48.406;9.984;2023-10-13T02:57:37;19.20;78.10
17994;DHT22;9122;48.406;9.984;2023-10-13T03:00:23;18.90;95.90
17994;DHT22;9122;48.406;9.984;2023-10-13T03:03:07;19.00;95.60
17994;DHT22;9122;48.406;9.984;2023-10-13T03:05:52;19.10;78.20
17994;DHT22;9122;48.406;9.984;2023-10-13T03:08:36;19.10;78.10
17994;DHT22;9122;48.406;9.984;2023-10-13T03:11:21;19.10;78.20
17994;DHT22;9122;48.406;9.984;2023-10-13T03:14:09;19.10;77.90
17994;DHT22;9122;48.406;9.984;2023-10-13T03:17:07;19.10;77.80
17994;DHT22;9122;48.406;9.984;2023-10-13T03:19:59;19.00;77.80
17994;DHT22;9122;48.406;9.984;2023-10-13T03:22:43;19.00;77.80
17994;DHT22;9122;48.406;9.984;2023-10-13T03:25:30;19.00;77.90
17994;DHT22;9122;48.406;9.984;2023-10-13T03:28:26;19.00;77.90
17994;DHT22;9122;48.406;9.984;2023-10-13T03:31:21;19.00;78.00
17994;DHT22;9122;48.406;9.984;2023-10-13T03:34:11;19.00;78.00
17994;DHT22;9122;48.406;9.984;2023-10-13T03:36:56;19.00;77.90
17994;DHT22;9122;48.406;9.984;2023-10-13T03:39:41;18.90;78.20
17994;DHT22;9122;48.406;9.984;2023-10-13T03:42:29;18.90;78.90
17994;DHT22;9122;48.406;9.984;2023-10-13T03:45:13;18.90;79.20
17994;DHT22;9122;48.406;9.984;2023-10-13T03:47:57;18.90;79.50
17994;DHT22;9122;48.406;9.984;2023-10-13T03:50:42;18.90;79.80
17994;DHT22;9122;48.406;9.984;2023-10-13T03:53:42;18.80;79.90
17994;DHT22;9122;48.406;9.984;2023-10-13T03:56:39;18.80;80.10
17994;DHT22;9122;48.406;9.984;2023-10-13T03:59:23;18.60;96.00
17994;DHT22;9122;48.406;9.984;2023-10-13T04:02:08;18.70;80.60
17994;DHT22;9122;48.406;9.984;2023-10-13T04:05:02;18.70;80.70
17994;DHT22;9122;48.406;9.984;2023-10-13T04:07:53;18.60;80.90
17994;DHT22;9122;48.406;9.984;2023-10-13T04:10:58;18.60;81.10
17994;DHT22;9122;48.406;9.984;2023-10-13T04:13:43;18.50;81.20
17994;DHT22;9122;48.406;9.984;2023-10-13T04:16:46;18.50;81.30
17994;DHT22;9122;48.406;9.984;2023-10-13T04:19:38;18.40;96.80
17994;DHT22;9122;48.406;9.984;2023-10-13T04:22:43;18.40;81.40
17994;DHT22;9122;48.406;9.984;2023-10-13T04:25:30;18.40;80.70
17994;DHT22;9122;48.406;9.984;2023-10-13T04:28:26;18.30;81.50
17994;DHT22;9122;48.406;9.984;2023-10-13T04:31:15;18.30;97.90
17994;DHT22;9122;48.406;9.984;2023-10-13T04:34:09;18.30;81.90
17994;DHT22;9122;48.406;9.984;2023-10-13T04:37:01;18.30;82.10
17994;DHT22;9122;48.406;9.984;2023-10-13T04:40:05;18.30;82.10
17994;DHT22;9122;48.406;9.984;2023-10-13T04:42:56;18.20;82.30
17994;DHT22;9122;48.406;9.984;2023-10-13T04:45:41;18.20;82.40
17994;DHT22;9122;48.406;9.984;2023-10-13T04:48:37;18.10;82.30
17994;DHT22;9122;48.406;9.984;2023-10-13T04:51:22;18.10;82.50
17994;DHT22;9122;48.406;9.984;2023-10-13T04:57:31;18.00;82.50
17994;DHT22;9122;48.406;9.984;2023-10-13T05:00:33;18.00;98.60
17994;DHT22;9122;48.406;9.984;2023-10-13T05:03:40;18.00;82.80
17994;DHT22;9122;48.406;9.984;2023-10-13T05:06:47;18.00;82.80
17994;DHT22;9122;48.406;9.984;2023-10-13T05:09:31;17.90;82.90
17994;DHT22;9122;48.406;9.984;2023-10-13T05:12:34;17.90;83.20
17994;DHT22;9122;48.406;9.984;2023-10-13T05:15:48;17.80;83.20
17994;DHT22;9122;48.406;9.984;2023-10-13T05:18:51;17.80;83.40
17994;DHT22;9122;48.406;9.984;2023-10-13T05:21:54;17.70;99.00
17994;DHT22;9122;48.406;9.984;2023-10-13T05:24:57;17.80;83.70
17994;DHT22;9122;48.406;9.984;2023-10-13T05:28:00;17.70;83.80
17994;DHT22;9122;48.406;9.984;2023-10-13T05:31:03;17.70;83.90
17994;DHT22;9122;48.406;9.984;2023-10-13T05:34:07;17.60;99.70
17994;DHT22;9122;48.406;9.984;2023-10-13T05:37:10;17.60;84.10
17994;DHT22;9122;48.406;9.984;2023-10-13T05:40:13;17.70;84.30
17994;DHT22;9122;48.406;9.984;2023-10-13T05:43:19;17.60;84.40
17994;DHT22;9122;48.406;9.984;2023-10-13T05:46:22;17.60;84.50
17994;DHT22;9122;48.406;9.984;2023-10-13T05:49:09;17.60;84.40
17994;DHT22;9122;48.406;9.984;2023-10-13T05:54:52;17.50;83.70
17994;DHT22;9122;48.406;9.984;2023-10-13T05:57:55;17.50;84.30
17994;DHT22;9122;48.406;9.984;2023-10-13T06:00:59;17.50;84.30
17994;DHT22;9122;48.406;9.984;2023-10-13T06:04:02;17.50;84.30
17994;DHT22;9122;48.406;9.984;2023-10-13T06:07:05;17.50;84.40
17994;DHT22;9122;48.406;9.984;2023-10-13T06:10:08;17.50;84.20
17994;DHT22;9122;48.406;9.984;2023-10-13T06:13:12;17.60;84.20
17994;DHT22;9122;48.406;9.984;2023-10-13T06:16:17;17.60;84.30
17994;DHT22;9122;48.406;9.984;2023-10-13T06:19:21;17.50;84.50
17994;DHT22;9122;48.406;9.984;2023-10-13T06:22:24;17.60;84.30
17994;DHT22;9122;48.406;9.984;2023-10-13T06:25:27;17.70;99.90
17994;DHT22;9122;48.406;9.984;2023-10-13T06:28:30;17.60;84.20
17994;DHT22;9122;48.406;9.984;2023-10-13T06:31:26;17.70;84.20
17994;DHT22;9122;48.406;9.984;2023-10-13T06:34:11;17.70;84.60
17994;DHT22;9122;48.406;9.984;2023-10-13T06:36:59;17.80;84.60
17994;DHT22;9122;48.406;9.984;2023-10-13T06:39:44;18.00;99.90
17994;DHT22;9122;48.406;9.984;2023-10-13T06:42:30;17.80;84.70
17994;DHT22;9122;48.406;9.984;2023-10-13T06:45:18;17.80;84.90
17994;DHT22;9122;48.406;9.984;2023-10-13T06:48:03;17.90;84.60
17994;DHT22;9122;48.406;9.984;2023-10-13T06:50:49;17.90;84.50
17994;DHT22;9122;48.406;9.984;2023-10-13T06:53:36;18.00;84.40
17994;DHT22;9122;48.406;9.984;2023-10-13T06:56:21;18.00;84.10
17994;DHT22;9122;48.406;9.984;2023-10-13T06:59:06;18.20;84.10
17994;DHT22;9122;48.406;9.984;2023-10-13T07:01:51;18.20;83.60
17994;DHT22;9122;48.406;9.984;2023-10-13T07:04:36;18.30;83.20
17994;DHT22;9122;48.406;9.984;2023-10-13T07:07:23;18.50;83.00
17994;DHT22;9122;48.406;9.984;2023-10-13T07:10:09;18.70;82.20
17994;DHT22;9122;48.406;9.984;2023-10-13T07:12:54;18.90;81.80
17994;DHT22;9122;48.406;9.984;2023-10-13T07:15:44;19.20;98.10
17994;DHT22;9122;48.406;9.984;2023-10-13T07:18:31;19.20;80.60
17994;DHT22;9122;48.406;9.984;2023-10-13T07:21:20;19.60;97.70
17994;DHT22;9122;48.406;9.984;2023-10-13T07:24:14;19.50;79.60
17994;DHT22;9122;48.406;9.984;2023-10-13T07:27:00;19.70;79.00
17994;DHT22;9122;48.406;9.984;2023-10-13T07:29:56;20.00;96.80
17994;DHT22;9122;48.406;9.984;2023-10-13T07:32:50;20.00;77.80
17994;DHT22;9122;48.406;9.984;2023-10-13T07:35:34;20.10;77.20
17994;DHT22;9122;48.406;9.984;2023-10-13T07:38:20;20.20;76.80
17994;DHT22;9122;48.406;9.984;2023-10-13T07:41:05;20.30;77.00
17994;DHT22;9122;48.406;9.984;2023-10-13T07:43:53;20.30;76.60
17994;DHT22;9122;48.406;9.984;2023-10-13T07:46:37;20.30;76.60
17994;DHT22;9122;48.406;9.984;2023-10-13T07:49:22;20.20;76.50
17994;DHT22;9122;48.406;9.984;2023-10-13T07:52:10;20.20;76.10
17994;DHT22;9122;48.406;9.984;2023-10-13T07:55:04;20.20;75.80
17994;DHT22;9122;48.406;9.984;2023-10-13T07:58:04;20.20;75.60
17994;DHT22;9122;48.406;9.984;2023-10-13T08:00:52;20.20;75.30
17994;DHT22;9122;48.406;9.984;2023-10-13T08:03:50;20.40;95.30
17994;DHT22;9122;48.406;9.984;2023-10-13T08:06:48;20.40;74.40
17994;DHT22;9122;48.406;9.984;2023-10-13T08:09:33;20.50;74.00
17994;DHT22;9122;48.406;9.984;2023-10-13T08:12:25;20.90;94.60
17994;DHT22;9122;48.406;9.984;2023-10-13T08:15:09;20.90;73.60
17994;DHT22;9122;48.406;9.984;2023-10-13T08:18:05;21.10;73.20
17994;DHT22;9122;48.406;9.984;2023-10-13T08:20:54;21.30;72.80
17994;DHT22;9122;48.406;9.984;2023-10-13T08:23:39;21.50;72.40
17994;DHT22;9122;48.406;9.984;2023-10-13T08:26:38;21.70;71.90
17994;DHT22;9122;48.406;9.984;2023-10-13T08:29:42;21.90;71.40
17994;DHT22;9122;48.406;9.984;2023-10-13T08:32:53;21.90;93.60
17994;DHT22;9122;48.406;9.984;2023-10-13T08:35:46;21.80;93.40
17994;DHT22;9122;48.406;9.984;2023-10-13T08:38:50;21.80;70.40
17994;DHT22;9122;48.406;9.984;2023-10-13T08:41:40;21.80;69.60
17994;DHT22;9122;48.406;9.984;2023-10-13T08:44:44;21.80;68.90
17994;DHT22;9122;48.406;9.984;2023-10-13T08:47:37;21.80;68.60
17994;DHT22;9122;48.406;9.984;2023-10-13T08:50:22;21.80;68.30
17994;DHT22;9122;48.406;9.984;2023-10-13T08:53:32;21.70;91.70
17994;DHT22;9122;48.406;9.984;2023-10-13T08:56:16;21.90;91.70
17994;DHT22;9122;48.406;9.984;2023-10-13T08:59:20;21.90;67.40
17994;DHT22;9122;48.406;9.984;2023-10-13T09:02:17;21.90;67.60
17994;DHT22;9122;48.406;9.984;2023-10-13T09:05:04;21.90;67.70
17994;DHT22;9122;48.406;9.984;2023-10-13T09:08:08;22.00;67.80
17994;DHT22;9122;48.406;9.984;2023-10-13T09:10:58;22.10;68.00
17994;DHT22;9122;48.406;9.984;2023-10-13T09:13:54;22.20;91.80
17994;DHT22;9122;48.406;9.984;2023-10-13T09:16:38;22.10;67.70
17994;DHT22;9122;48.406;9.984;2023-10-13T09:19:26;22.20;67.10
17994;DHT22;9122;48.406;9.984;2023-10-13T09:22:23;22.30;66.50
17994;DHT22;9122;48.406;9.984;2023-10-13T09:25:23;22.40;65.60
17994;DHT22;9122;48.406;9.984;2023-10-13T09:28:12;22.40;65.10
17994;DHT22;9122;48.406;9.984;2023-10-13T09:31:01;22.50;65.20
17994;DHT22;9122;48.406;9.984;2023-10-13T09:33:46;22.50;65.30
17994;DHT22;9122;48.406;9.984;2023-10-13T09:36:39;22.70;64.70
17994;DHT22;9122;48.406;9.984;2023-10-13T09:39:27;22.90;90.30
17994;DHT22;9122;48.406;9.984;2023-10-13T09:42:18;22.80;63.70
17994;DHT22;9122;48.406;9.984;2023-10-13T09:45:03;22.80;63.30
17994;DHT22;9122;48.406;9.984;2023-10-13T09:47:50;22.90;62.90
17994;DHT22;9122;48.406;9.984;2023-10-13T09:50:37;23.00;63.00
17994;DHT22;9122;48.406;9.984;2023-10-13T09:53:30;23.10;62.40
17994;DHT22;9122;48.406;9.984;2023-10-13T09:56:19;23.20;61.90
17994;DHT22;9122;48.406;9.984;2023-10-13T09:59:15;23.30;62.10
17994;DHT22;9122;48.406;9.984;2023-10-13T10:02:05;23.40;62.20
17994;DHT22;9122;48.406;9.984;2023-10-13T10:04:56;23.60;87.20
17994;DHT22;9122;48.406;9.984;2023-10-13T10:07:57;23.50;60.80
17994;DHT22;9122;48.406;9.984;2023-10-13T10:10:56;23.60;60.30
17994;DHT22;9122;48.406;9.984;2023-10-13T10:13:47;23.70;60.40
17994;DHT22;9122;48.406;9.984;2023-10-13T10:17:03;23.70;59.80
17994;DHT22;9122;48.406;9.984;2023-10-13T10:19:53;23.90;59.50
17994;DHT22;9122;48.406;9.984;2023-10-13T10:22:38;23.70;59.40
17994;DHT22;9122;48.406;9.984;2023-10-13T10:25:30;24.00;59.00
17994;DHT22;9122;48.406;9.984;2023-10-13T10:28:18;24.10;59.10
17994;DHT22;9122;48.406;9.984;2023-10-13T10:31:08;24.10;58.60
17994;DHT22;9122;48.406;9.984;2023-10-13T10:34:16;24.20;58.20
17994;DHT22;9122;48.406;9.984;2023-10-13T10:37:04;24.30;58.50
17994;DHT22;9122;48.406;9.984;2023-10-13T10:39:53;24.40;58.60
17994;DHT22;9122;48.406;9.984;2023-10-13T10:42:41;24.40;58.40
17994;DHT22;9122;48.406;9.984;2023-10-13T10:45:25;24.50;58.50
17994;DHT22;9122;48.406;9.984;2023-10-13T10:48:17;24.50;58.30
17994;DHT22;9122;48.406;9.984;2023-10-13T10:51:05;24.60;58.30
17994;DHT22;9122;48.406;9.984;2023-10-13T10:54:00;24.60;58.40
17994;DHT22;9122;48.406;9.984;2023-10-13T10:57:00;24.70;58.20
17994;DHT22;9122;48.406;9.984;2023-10-13T11:00:01;24.90;83.00
17994;DHT22;9122;48.406;9.984;2023-10-13T11:02:56;24.80;57.00
17994;DHT22;9122;48.406;9.984;2023-10-13T11:05:47;24.80;56.50
17994;DHT22;9122;48.406;9.984;2023-10-13T11:08:33;24.90;81.60
17994;DHT22;9122;48.406;9.984;2023-10-13T11:11:28;25.00;81.70
17994;DHT22;9122;48.406;9.984;2023-10-13T11:14:25;24.90;56.10
17994;DHT22;9122;48.406;9.984;2023-10-13T11:17:09;24.80;55.90
17994;DHT22;9122;48.406;9.984;2023-10-13T11:20:12;25.10;80.60
17994;DHT22;9122;48.406;9.984;2023-10-13T11:23:01;25.00;55.40
17994;DHT22;9122;48.406;9.984;2023-10-13T11:25:56;25.10;55.30
17994;DHT22;9122;48.406;9.984;2023-10-13T11:28:50;25.10;54.60
17994;DHT22;9122;48.406;9.984;2023-10-13T11:31:34;25.20;53.90
17994;DHT22;9122;48.406;9.984;2023-10-13T11:34:19;25.20;76.70
17994;DHT22;9122;48.406;9.984;2023-10-13T11:37:07;25.20;52.20
17994;DHT22;9122;48.406;9.984;2023-10-13T11:40:10;25.30;51.80
17994;DHT22;9122;48.406;9.984;2023-10-13T11:42:58;25.40;74.70
17994;DHT22;9122;48.406;9.984;2023-10-13T11:45:42;25.50;74.50
17994;DHT22;9122;48.406;9.984;2023-10-13T11:48:56;25.40;50.70
17994;DHT22;9122;48.406;9.984;2023-10-13T11:51:50;25.60;74.00
17994;DHT22;9122;48.406;9.984;2023-10-13T11:54:35;25.50;50.20
17994;DHT22;9122;48.406;9.984;2023-10-13T11:57:22;25.70;50.10
17994;DHT22;9122;48.406;9.984;2023-10-13T12:00:07;25.60;50.20
17994;DHT22;9122;48.406;9.984;2023-10-13T12:03:10;25.70;49.60
17994;DHT22;9122;48.406;9.984;2023-10-13T12:06:13;25.70;49.60
17994;DHT22;9122;48.406;9.984;2023-10-13T12:09:16;25.70;73.70
17994;DHT22;9122;48.406;9.984;2023-10-13T12:12:03;25.80;49.10
17994;DHT22;9122;48.406;9.984;2023-10-13T12:14:48;25.90;72.10
17994;DHT22;9122;48.406;9.984;2023-10-13T12:17:39;25.90;49.00
17994;DHT22;9122;48.406;9.984;2023-10-13T12:20:28;26.00;48.30
17994;DHT22;9122;48.406;9.984;2023-10-13T12:23:20;25.90;70.80
17994;DHT22;9122;48.406;9.984;2023-10-13T12:29:16;26.10;46.80
17994;DHT22;9122;48.406;9.984;2023-10-13T12:32:07;26.20;47.20
17994;DHT22;9122;48.406;9.984;2023-10-13T12:34:57;26.30;68.10
17994;DHT22;9122;48.406;9.984;2023-10-13T12:38:00;26.20;46.10
17994;DHT22;9122;48.406;9.984;2023-10-13T12:41:01;26.30;67.20
17994;DHT22;9122;48.406;9.984;2023-10-13T12:44:05;26.30;46.60
17994;DHT22;9122;48.406;9.984;2023-10-13T12:47:08;26.40;67.70
17994;DHT22;9122;48.406;9.984;2023-10-13T12:50:11;25.90;45.20
17994;DHT22;9122;48.406;9.984;2023-10-13T12:53:08;26.60;67.10
17994;DHT22;9122;48.406;9.984;2023-10-13T12:55:59;26.50;45.10
17994;DHT22;9122;48.406;9.984;2023-10-13T12:58:44;27.70;45.60
17994;DHT22;9122;48.406;9.984;2023-10-13T13:01:35;26.50;45.50
17994;DHT22;9122;48.406;9.984;2023-10-13T13:04:26;26.60;45.00
17994;DHT22;9122;48.406;9.984;2023-10-13T13:07:16;26.40;44.80
17994;DHT22;9122;48.406;9.984;2023-10-13T13:10:13;26.70;66.60
17994;DHT22;9122;48.406;9.984;2023-10-13T13:13:03;26.70;43.80
17994;DHT22;9122;48.406;9.984;2023-10-13T13:18:32;26.70;43.20
17994;DHT22;9122;48.406;9.984;2023-10-13T13:24:08;26.80;43.40
17994;DHT22;9122;48.406;9.984;2023-10-13T13:26:58;26.80;43.70
17994;DHT22;9122;48.406;9.984;2023-10-13T13:29:47;26.80;43.30
17994;DHT22;9122;48.406;9.984;2023-10-13T13:32:31;26.80;43.50
17994;DHT22;9122;48.406;9.984;2023-10-13T13:35:15;26.90;43.70
17994;DHT22;9122;48.406;9.984;2023-10-13T13:38:02;26.90;66.10
17994;DHT22;9122;48.406;9.984;2023-10-13T13:41:14;26.90;44.10
17994;DHT22;9122;48.406;9.984;2023-10-13T13:44:02;26.90;44.00
17994;DHT22;9122;48.406;9.984;2023-10-13T13:47:13;26.90;44.10
17994;DHT22;9122;48.406;9.984;2023-10-13T13:49:58;26.90;43.70
17994;DHT22;9122;48.406;9.984;2023-10-13T13:52:42;26.90;44.10
17994;DHT22;9122;48.406;9.984;2023-10-13T13:55:33;26.90;43.50
17994;DHT22;9122;48.406;9.984;2023-10-13T13:58:18;26.90;43.90
17994;DHT22;9122;48.406;9.984;2023-10-13T14:01:03;26.90;65.20
17994;DHT22;9122;48.406;9.984;2023-10-13T14:03:58;27.00;43.60
17994;DHT22;9122;48.406;9.984;2023-10-13T14:06:47;27.00;43.50
17994;DHT22;9122;48.406;9.984;2023-10-13T14:09:31;27.00;43.50
17994;DHT22;9122;48.406;9.984;2023-10-13T14:15:25;26.90;65.20
17994;DHT22;9122;48.406;9.984;2023-10-13T14:18:10;27.00;43.70
17994;DHT22;9122;48.406;9.984;2023-10-13T14:21:00;27.00;43.60
17994;DHT22;9122;48.406;9.984;2023-10-13T14:23:49;27.30;64.80
17994;DHT22;9122;48.406;9.984;2023-10-13T14:26:33;27.00;43.30
17994;DHT22;9122;48.406;9.984;2023-10-13T14:29:19;27.00;43.00
17994;DHT22;9122;48.406;9.984;2023-10-13T14:32:03;27.00;43.20
17994;DHT22;9122;48.406;9.984;2023-10-13T14:34:47;27.00;43.80
17994;DHT22;9122;48.406;9.984;2023-10-13T14:37:38;27.00;44.10
17994;DHT22;9122;48.406;9.984;2023-10-13T14:40:22;27.00;65.10
17994;DHT22;9122;48.406;9.984;2023-10-13T14:43:06;27.00;44.00
17994;DHT22;9122;48.406;9.984;2023-10-13T14:45:52;27.00;44.00
17994;DHT22;9122;48.406;9.984;2023-10-13T14:48:36;27.00;44.30
17994;DHT22;9122;48.406;9.984;2023-10-13T14:51:23;27.00;44.30
17994;DHT22;9122;48.406;9.984;2023-10-13T14:54:09;27.10;65.80
17994;DHT22;9122;48.406;9.984;2023-10-13T14:56:54;27.00;44.00
17994;DHT22;9122;48.406;9.984;2023-10-13T14:59:39;27.00;44.00
17994;DHT22;9122;48.406;9.984;2023-10-13T15:02:24;27.00;44.10
17994;DHT22;9122;48.406;9.984;2023-10-13T15:05:12;26.90;43.10
17994;DHT22;9122;48.406;9.984;2023-10-13T15:08:00;26.90;65.70
17994;DHT22;9122;48.406;9.984;2023-10-13T15:10:47;26.90;43.90
17994;DHT22;9122;48.406;9.984;2023-10-13T15:13:31;26.90;43.70
17994;DHT22;9122;48.406;9.984;2023-10-13T15:16:16;26.90;67.20
17994;DHT22;9122;48.406;9.984;2023-10-13T15:19:01;26.90;44.70
17994;DHT22;9122;48.406;9.984;2023-10-13T15:21:48;26.80;44.30
17994;DHT22;9122;48.406;9.984;2023-10-13T15:24:36;26.80;44.30
17994;DHT22;9122;48.406;9.984;2023-10-13T15:27:31;26.80;43.80
17994;DHT22;9122;48.406;9.984;2023-10-13T15:30:16;26.70;66.10
17994;DHT22;9122;48.406;9.984;2023-10-13T15:33:08;26.80;44.30
17994;DHT22;9122;48.406;9.984;2023-10-13T15:35:52;26.70;44.40
17994;DHT22;9122;48.406;9.984;2023-10-13T15:38:37;26.70;44.90
17994;DHT22;9122;48.406;9.984;2023-10-13T15:41:22;26.70;44.80
17994;DHT22;9122;48.406;9.984;2023-10-13T15:44:11;26.70;45.10
17994;DHT22;9122;48.406;9.984;2023-10-13T15:46:58;26.70;44.90
17994;DHT22;9122;48.406;9.984;2023-10-13T15:49:43;26.60;45.00
17994;DHT22;9122;48.406;9.984;2023-10-13T15:52:27;26.60;45.70
17994;DHT22;9122;48.406;9.984;2023-10-13T15:55:16;26.60;45.30
17994;DHT22;9122;48.406;9.984;2023-10-13T15:58:01;26.50;45.20
17994;DHT22;9122;48.406;9.984;2023-10-13T16:00:46;26.50;45.40
17994;DHT22;9122;48.406;9.984;2023-10-13T16:03:32;26.50;45.50
17994;DHT22;9122;48.406;9.984;2023-10-13T16:06:17;26.50;45.60
17994;DHT22;9122;48.406;9.984;2023-10-13T16:09:01;26.50;45.90
17994;DHT22;9122;48.406;9.984;2023-10-13T16:11:46;26.40;46.00
17994;DHT22;9122;48.406;9.984;2023-10-13T16:14:30;26.40;46.10
17994;DHT22;9122;48.406;9.984;2023-10-13T16:17:19;26.40;46.20
17994;DHT22;9122;48.406;9.984;2023-10-13T16:20:09;26.30;46.30
17994;DHT22;9122;48.406;9.984;2023-10-13T16:23:00;26.30;46.30
17994;DHT22;9122;48.406;9.984;2023-10-13T16:25:45;26.30;46.30
17994;DHT22;9122;48.406;9.984;2023-10-13T16:28:29;26.30;64.40
17994;DHT22;9122;48.406;9.984;2023-10-13T16:31:18;26.20;46.70
17994;DHT22;9122;48.406;9.984;2023-10-13T16:34:02;26.20;46.60
17994;DHT22;9122;48.406;9.984;2023-10-13T16:39:42;26.10;46.30
17994;DHT22;9122;48.406;9.984;2023-10-13T16:42:28;26.10;47.40
17994;DHT22;9122;48.406;9.984;2023-10-13T16:45:14;26.10;47.30
17994;DHT22;9122;48.406;9.984;2023-10-13T16:48:07;26.00;47.40
17994;DHT22;9122;48.406;9.984;2023-10-13T16:50:51;26.00;47.60
17994;DHT22;9122;48.406;9.984;2023-10-13T16:53:36;26.00;47.70
17994;DHT22;9122;48.406;9.984;2023-10-13T16:56:20;25.90;47.80
17994;DHT22;9122;48.406;9.984;2023-10-13T16:59:06;25.80;66.50
17994;DHT22;9122;48.406;9.984;2023-10-13T17:01:51;25.80;48.20
17994;DHT22;9122;48.406;9.984;2023-10-13T17:04:35;25.80;48.30
17994;DHT22;9122;48.406;9.984;2023-10-13T17:07:19;25.80;48.60
17994;DHT22;9122;48.406;9.984;2023-10-13T17:10:04;25.70;48.90
17994;DHT22;9122;48.406;9.984;2023-10-13T17:12:49;25.70;49.20
17994;DHT22;9122;48.406;9.984;2023-10-13T17:15:35;25.60;66.90
17994;DHT22;9122;48.406;9.984;2023-10-13T17:18:23;25.60;49.80
17994;DHT22;9122;48.406;9.984;2023-10-13T17:21:15;25.50;50.30
17994;DHT22;9122;48.406;9.984;2023-10-13T17:23:59;25.40;50.60
17994;DHT22;9122;48.406;9.984;2023-10-13T17:26:47;25.40;51.40
17994;DHT22;9122;48.406;9.984;2023-10-13T17:29:34;25.30;51.00
17994;DHT22;9122;48.406;9.984;2023-10-13T17:32:20;25.30;68.40
17994;DHT22;9122;48.406;9.984;2023-10-13T17:35:07;25.20;51.70
17994;DHT22;9122;48.406;9.984;2023-10-13T17:37:51;25.10;51.50
17994;DHT22;9122;48.406;9.984;2023-10-13T17:40:37;25.10;51.60
17994;DHT22;9122;48.406;9.984;2023-10-13T17:43:22;25.00;51.40
17994;DHT22;9122;48.406;9.984;2023-10-13T17:46:09;25.00;51.60
17994;DHT22;9122;48.406;9.984;2023-10-13T17:48:55;25.00;51.50
17994;DHT22;9122;48.406;9.984;2023-10-13T17:51:39;25.00;51.70
17994;DHT22;9122;48.406;9.984;2023-10-13T17:54:24;24.90;68.80
17994;DHT22;9122;48.406;9.984;2023-10-13T17:57:08;24.90;51.80
17994;DHT22;9122;48.406;9.984;2023-10-13T17:59:53;24.80;52.10
17994;DHT22;9122;48.406;9.984;2023-10-13T18:02:37;24.80;52.20
17994;DHT22;9122;48.406;9.984;2023-10-13T18:05:21;24.80;52.20
17994;DHT22;9122;48.406;9.984;2023-10-13T18:08:06;24.70;52.20
17994;DHT22;9122;48.406;9.984;2023-10-13T18:10:54;24.70;52.40
17994;DHT22;9122;48.406;9.984;2023-10-13T18:13:43;24.60;52.30
17994;DHT22;9122;48.406;9.984;2023-10-13T18:16:29;24.60;68.80
17994;DHT22;9122;48.406;9.984;2023-10-13T18:19:14;24.50;52.80
17994;DHT22;9122;48.406;9.984;2023-10-13T18:21:58;24.50;52.20
17994;DHT22;9122;48.406;9.984;2023-10-13T18:24:43;24.40;52.20
17994;DHT22;9122;48.406;9.984;2023-10-13T18:27:28;24.40;52.40
17994;DHT22;9122;48.406;9.984;2023-10-13T18:30:13;24.40;52.60
17994;DHT22;9122;48.406;9.984;2023-10-13T18:32:58;24.30;52.70